createdAt,value
2017-10-24T00:00:45.038Z,0
2017-10-24T00:01:53.887Z,0
2017-10-24T00:03:03.635Z,0
2017-10-24T00:04:12.482Z,0
2017-10-24T00:05:21.331Z,0
2017-10-24T00:06:30.178Z,0
2017-10-24T00:07:39.025Z,0
2017-10-24T00:08:47.925Z,0
2017-10-24T00:09:56.768Z,0
2017-10-24T00:11:05.619Z,0
2017-10-24T00:12:14.469Z,0
2017-10-24T00:13:23.318Z,0
2017-10-24T00:14:32.464Z,0
2017-10-24T00:15:41.312Z,0
2017-10-24T00:16:50.160Z,0
2017-10-24T00:17:59.010Z,0
2017-10-24T00:19:07.858Z,0
2017-10-24T00:20:16.856Z,0
2017-10-24T00:21:25.705Z,0
2017-10-24T00:22:34.553Z,0
2017-10-24T00:23:43.407Z,0
2017-10-24T00:24:52.253Z,0
2017-10-24T00:26:01.299Z,0
2017-10-24T00:27:10.148Z,0
2017-10-24T00:28:18.995Z,0
2017-10-24T00:29:27.841Z,0
2017-10-24T00:30:36.688Z,0
2017-10-24T00:31:45.633Z,0
2017-10-24T00:32:54.482Z,0
2017-10-24T00:34:03.331Z,0
2017-10-24T00:35:12.178Z,0
2017-10-24T00:36:21.028Z,0
2017-10-24T00:37:29.977Z,0
2017-10-24T00:38:38.832Z,0
2017-10-24T00:39:47.669Z,0
2017-10-24T00:40:56.516Z,0
2017-10-24T00:42:05.364Z,0
2017-10-24T00:43:14.212Z,0
2017-10-24T00:44:23.061Z,0
2017-10-24T00:45:31.912Z,0
2017-10-24T00:46:40.763Z,0
2017-10-24T00:47:49.615Z,0
2017-10-24T00:48:58.605Z,0
2017-10-24T00:50:07.812Z,0
2017-10-24T00:51:16.654Z,0
2017-10-24T00:52:25.504Z,0
2017-10-24T00:53:34.352Z,0
2017-10-24T00:54:43.347Z,0
2017-10-24T00:55:52.196Z,0
2017-10-24T00:57:01.044Z,0
2017-10-24T00:58:09.897Z,0
2017-10-24T00:59:18.747Z,0
2017-10-24T01:00:27.748Z,0
2017-10-24T01:01:36.599Z,0
2017-10-24T01:02:45.454Z,0
2017-10-24T01:03:54.297Z,0
2017-10-24T01:05:03.146Z,0
2017-10-24T01:06:12.099Z,0
2017-10-24T01:07:20.948Z,0
2017-10-24T01:08:29.797Z,0
2017-10-24T01:09:38.642Z,0
2017-10-24T01:10:47.839Z,0
2017-10-24T01:11:56.885Z,0
2017-10-24T01:13:05.736Z,0
2017-10-24T01:14:14.589Z,0
2017-10-24T01:15:23.433Z,0
2017-10-24T01:16:32.283Z,0
2017-10-24T01:17:41.288Z,0
2017-10-24T01:18:50.131Z,0
2017-10-24T01:19:58.984Z,0
2017-10-24T01:21:07.834Z,0
2017-10-24T01:22:16.684Z,0
2017-10-24T01:23:25.633Z,0
2017-10-24T01:24:34.481Z,0
2017-10-24T01:25:43.333Z,0
2017-10-24T01:26:52.204Z,0
2017-10-24T01:28:01.031Z,0
2017-10-24T01:29:09.978Z,0
2017-10-24T01:30:18.823Z,0
2017-10-24T01:31:27.670Z,0
2017-10-24T01:32:36.520Z,0
2017-10-24T01:33:45.371Z,0
2017-10-24T01:34:54.419Z,0
2017-10-24T01:36:03.271Z,0
2017-10-24T01:37:12.123Z,0
2017-10-24T01:38:20.971Z,0
2017-10-24T01:39:29.821Z,0
2017-10-24T01:40:38.818Z,0
2017-10-24T01:41:47.669Z,0
2017-10-24T01:42:56.509Z,0
2017-10-24T01:44:05.367Z,0
2017-10-24T01:45:14.552Z,0
2017-10-24T01:46:23.651Z,0
2017-10-24T01:47:32.498Z,0
2017-10-24T01:48:41.693Z,0
2017-10-24T01:49:50.542Z,0
2017-10-24T01:50:59.389Z,0
2017-10-24T01:52:08.337Z,0
2017-10-24T01:53:17.184Z,0
2017-10-24T01:54:26.032Z,0
2017-10-24T01:55:34.882Z,0
2017-10-24T01:56:43.730Z,0
2017-10-24T01:57:52.684Z,0
2017-10-24T01:59:01.527Z,0
2017-10-24T02:00:10.724Z,0
2017-10-24T02:01:19.572Z,0
2017-10-24T02:02:28.418Z,0
2017-10-24T02:03:37.518Z,0
2017-10-24T02:04:46.368Z,0
2017-10-24T02:05:55.216Z,0
2017-10-24T02:07:04.068Z,0
2017-10-24T02:08:12.918Z,0
2017-10-24T02:09:21.918Z,0
2017-10-24T02:10:30.770Z,0
2017-10-24T02:11:39.611Z,0
2017-10-24T02:12:48.457Z,0
2017-10-24T02:13:57.305Z,0
2017-10-24T02:15:06.355Z,0
2017-10-24T02:16:15.203Z,0
2017-10-24T02:17:24.050Z,0
2017-10-24T02:18:32.901Z,0
2017-10-24T02:19:41.748Z,0
2017-10-24T02:20:50.597Z,0
2017-10-24T02:21:59.444Z,0
2017-10-24T02:23:08.293Z,0
2017-10-24T02:24:17.140Z,0
2017-10-24T02:25:25.988Z,0
2017-10-24T02:26:34.988Z,0
2017-10-24T02:27:43.839Z,0
2017-10-24T02:28:52.683Z,0
2017-10-24T02:30:01.537Z,0
2017-10-24T02:31:10.378Z,0
2017-10-24T02:32:19.523Z,0
2017-10-24T02:33:28.373Z,0
2017-10-24T02:34:37.224Z,0
2017-10-24T02:35:46.072Z,0
2017-10-24T02:36:54.919Z,0
2017-10-24T02:38:03.915Z,0
2017-10-24T02:39:12.768Z,0
2017-10-24T02:40:21.621Z,0
2017-10-24T02:41:30.466Z,0
2017-10-24T02:42:39.314Z,0
2017-10-24T02:43:48.367Z,0
2017-10-24T02:44:57.581Z,0
2017-10-24T02:46:06.428Z,0
2017-10-24T02:47:15.277Z,0
2017-10-24T02:48:24.126Z,0
2017-10-24T02:49:33.132Z,0
2017-10-24T02:50:41.974Z,0
2017-10-24T02:51:50.823Z,0
2017-10-24T02:52:59.670Z,0
2017-10-24T02:54:08.521Z,0
2017-10-24T02:55:17.421Z,0
2017-10-24T02:56:26.271Z,0
2017-10-24T02:57:35.122Z,0
2017-10-24T02:58:43.970Z,0
2017-10-24T02:59:52.819Z,0
2017-10-24T03:01:01.771Z,0
2017-10-24T03:02:10.617Z,0
2017-10-24T03:03:19.473Z,0
2017-10-24T03:04:28.314Z,0
2017-10-24T03:05:37.163Z,0
2017-10-24T03:06:46.108Z,0
2017-10-24T03:07:54.958Z,0
2017-10-24T03:09:03.807Z,0
2017-10-24T03:10:12.655Z,0
2017-10-24T03:11:21.504Z,0
2017-10-24T03:12:30.501Z,0
2017-10-24T03:13:39.349Z,0
2017-10-24T03:14:48.195Z,0
2017-10-24T03:15:57.043Z,0
2017-10-24T03:17:05.893Z,0
2017-10-24T03:18:14.842Z,0
2017-10-24T03:19:23.692Z,0
2017-10-24T03:20:32.538Z,0
2017-10-24T03:21:41.386Z,0
2017-10-24T03:22:50.231Z,0
2017-10-24T03:23:59.079Z,0
2017-10-24T03:25:07.922Z,0
2017-10-24T03:26:16.768Z,0
2017-10-24T03:27:25.616Z,0
2017-10-24T03:28:34.466Z,0
2017-10-24T03:29:43.364Z,0
2017-10-24T03:30:52.206Z,0
2017-10-24T03:32:01.054Z,0
2017-10-24T03:33:09.908Z,0
2017-10-24T03:34:18.751Z,0
2017-10-24T03:35:27.843Z,0
2017-10-24T03:36:37.038Z,0
2017-10-24T03:37:45.889Z,0
2017-10-24T03:38:54.734Z,0
2017-10-24T03:40:03.587Z,0
2017-10-24T03:41:12.436Z,0
2017-10-24T03:42:21.281Z,0
2017-10-24T03:43:30.125Z,0
2017-10-24T03:44:38.971Z,0
2017-10-24T03:45:48.168Z,0
2017-10-24T03:46:57.165Z,0
2017-10-24T03:48:06.024Z,0
2017-10-24T03:49:15.218Z,0
2017-10-24T03:50:24.062Z,0
2017-10-24T03:51:32.908Z,0
2017-10-24T03:52:41.806Z,0
2017-10-24T03:53:50.654Z,0
2017-10-24T03:54:59.503Z,0
2017-10-24T03:56:08.351Z,0
2017-10-24T03:57:17.198Z,0
2017-10-24T03:58:26.196Z,0
2017-10-24T03:59:35.045Z,0
2017-10-24T04:00:43.898Z,0
2017-10-24T04:01:52.746Z,0
2017-10-24T04:03:01.602Z,0
2017-10-24T04:04:10.442Z,0
2017-10-24T04:05:19.290Z,0
2017-10-24T04:06:28.135Z,0
2017-10-24T04:07:36.983Z,0
2017-10-24T04:08:45.830Z,0
2017-10-24T04:09:54.781Z,0
2017-10-24T04:11:03.979Z,0
2017-10-24T04:12:12.825Z,0
2017-10-24T04:13:21.675Z,0
2017-10-24T04:14:30.523Z,0
2017-10-24T04:15:39.572Z,0
2017-10-24T04:16:48.420Z,0
2017-10-24T04:17:57.284Z,0
2017-10-24T04:19:06.116Z,0
2017-10-24T04:20:14.964Z,0
2017-10-24T04:21:23.812Z,0
2017-10-24T04:22:32.665Z,0
2017-10-24T04:23:41.513Z,0
2017-10-24T04:24:50.362Z,0
2017-10-24T04:25:59.209Z,0
2017-10-24T04:27:08.052Z,0
2017-10-24T04:28:16.901Z,0
2017-10-24T04:29:25.749Z,0
2017-10-24T04:30:34.597Z,0
2017-10-24T04:31:43.449Z,0
2017-10-24T04:32:52.508Z,0
2017-10-24T04:34:01.352Z,0
2017-10-24T04:35:10.200Z,0
2017-10-24T04:36:19.046Z,0
2017-10-24T04:37:27.892Z,0
2017-10-24T04:38:36.840Z,0
2017-10-24T04:39:45.689Z,0
2017-10-24T04:40:54.545Z,0
2017-10-24T04:42:03.394Z,0
2017-10-24T04:43:12.243Z,0
2017-10-24T04:44:21.190Z,0
2017-10-24T04:45:30.037Z,0
2017-10-24T04:46:38.886Z,0
2017-10-24T04:47:48.079Z,0
2017-10-24T04:48:56.929Z,0
2017-10-24T04:50:06.180Z,0
2017-10-24T04:51:15.030Z,0
2017-10-24T04:52:23.878Z,0
2017-10-24T04:53:32.726Z,0
2017-10-24T04:54:41.579Z,0
2017-10-24T04:55:50.957Z,0
2017-10-24T04:56:59.763Z,0
2017-10-24T04:58:08.612Z,0
2017-10-24T04:59:17.464Z,0
2017-10-24T05:00:26.315Z,0
2017-10-24T05:01:35.226Z,0
2017-10-24T05:02:44.428Z,0
2017-10-24T05:03:53.276Z,0
2017-10-24T05:05:02.129Z,0
2017-10-24T05:06:10.984Z,0
2017-10-24T05:07:20.233Z,0
2017-10-24T05:08:29.083Z,0
2017-10-24T05:09:37.933Z,0
2017-10-24T05:10:46.781Z,0
2017-10-24T05:11:55.629Z,0
2017-10-24T05:13:04.582Z,0
2017-10-24T05:14:13.431Z,0
2017-10-24T05:15:22.282Z,0
2017-10-24T05:16:31.308Z,0
2017-10-24T05:17:40.161Z,0
2017-10-24T05:18:49.660Z,0
2017-10-24T05:19:58.508Z,0
2017-10-24T05:21:07.356Z,0
2017-10-24T05:22:16.201Z,0
2017-10-24T05:23:25.072Z,0
2017-10-24T05:24:33.924Z,0
2017-10-24T05:25:42.772Z,0
2017-10-24T05:26:51.619Z,0
2017-10-24T05:28:00.469Z,0
2017-10-24T05:29:09.716Z,0
2017-10-24T05:30:18.565Z,0
2017-10-24T05:31:27.414Z,0
2017-10-24T05:32:36.260Z,0
2017-10-24T05:33:45.110Z,0
2017-10-24T05:34:53.960Z,0
2017-10-24T05:36:02.808Z,0
2017-10-24T05:37:11.656Z,0
2017-10-24T05:38:20.503Z,0
2017-10-24T05:39:29.348Z,0
2017-10-24T05:40:38.193Z,0
2017-10-24T05:41:47.050Z,0
2017-10-24T05:42:55.905Z,0
2017-10-24T05:44:04.756Z,0
2017-10-24T05:45:13.601Z,0
2017-10-24T05:46:22.452Z,0
2017-10-24T05:47:31.301Z,4
2017-10-24T05:48:40.151Z,0
2017-10-24T05:49:49.148Z,0
2017-10-24T05:50:57.996Z,4
2017-10-24T05:52:06.847Z,4
2017-10-24T05:53:15.693Z,4
2017-10-24T05:54:24.544Z,4
2017-10-24T05:55:33.433Z,4
2017-10-24T05:56:42.315Z,8
2017-10-24T05:57:51.163Z,8
2017-10-24T05:59:00.030Z,12
2017-10-24T06:00:08.875Z,12
2017-10-24T06:01:18.024Z,16
2017-10-24T06:02:26.907Z,16
2017-10-24T06:03:35.756Z,20
2017-10-24T06:04:44.655Z,24
2017-10-24T06:05:53.502Z,24
2017-10-24T06:07:02.524Z,32
2017-10-24T06:08:11.375Z,36
2017-10-24T06:09:20.236Z,40
2017-10-24T06:10:29.087Z,44
2017-10-24T06:11:37.935Z,44
2017-10-24T06:12:47.034Z,44
2017-10-24T06:13:55.882Z,48
2017-10-24T06:15:04.733Z,56
2017-10-24T06:16:13.581Z,68
2017-10-24T06:17:22.427Z,76
2017-10-24T06:18:31.424Z,84
2017-10-24T06:19:40.562Z,88
2017-10-24T06:20:49.465Z,92
2017-10-24T06:21:58.339Z,108
2017-10-24T06:23:07.562Z,120
2017-10-24T06:24:16.567Z,128
2017-10-24T06:25:25.800Z,124
2017-10-24T06:26:34.666Z,140
2017-10-24T06:27:43.719Z,152
2017-10-24T06:28:52.566Z,168
2017-10-24T06:30:01.817Z,180
2017-10-24T06:31:10.665Z,176
2017-10-24T06:32:19.529Z,196
2017-10-24T06:33:28.384Z,212
2017-10-24T06:34:37.234Z,232
2017-10-24T06:35:46.233Z,252
2017-10-24T06:36:55.433Z,264
2017-10-24T06:38:04.294Z,268
2017-10-24T06:39:13.152Z,276
2017-10-24T06:40:21.996Z,280
2017-10-24T06:41:31.105Z,288
2017-10-24T06:42:39.956Z,280
2017-10-24T06:43:48.818Z,292
2017-10-24T06:44:57.665Z,304
2017-10-24T06:46:06.515Z,308
2017-10-24T06:47:15.541Z,328
2017-10-24T06:48:24.743Z,364
2017-10-24T06:49:33.936Z,380
2017-10-24T06:50:42.871Z,432
2017-10-24T06:51:51.753Z,448
2017-10-24T06:53:00.626Z,456
2017-10-24T06:54:09.495Z,460
2017-10-24T06:55:18.344Z,476
2017-10-24T06:56:27.190Z,472
2017-10-24T06:57:36.106Z,476
2017-10-24T06:58:45.188Z,504
2017-10-24T06:59:54.098Z,512
2017-10-24T07:01:03.308Z,508
2017-10-24T07:02:12.155Z,552
2017-10-24T07:03:21.009Z,628
2017-10-24T07:04:30.062Z,708
2017-10-24T07:05:38.909Z,748
2017-10-24T07:06:47.839Z,728
2017-10-24T07:07:57.104Z,732
2017-10-24T07:09:05.954Z,704
2017-10-24T07:10:14.961Z,692
2017-10-24T07:11:23.809Z,676
2017-10-24T07:12:33.047Z,640
2017-10-24T07:13:41.905Z,604
2017-10-24T07:14:50.808Z,620
2017-10-24T07:15:59.865Z,600
2017-10-24T07:17:09.114Z,580
2017-10-24T07:18:17.994Z,612
2017-10-24T07:19:26.870Z,600
2017-10-24T07:20:35.718Z,656
2017-10-24T07:21:44.669Z,720
2017-10-24T07:22:53.516Z,724
2017-10-24T07:24:02.366Z,740
2017-10-24T07:25:11.215Z,808
2017-10-24T07:26:20.064Z,908
2017-10-24T07:27:29.010Z,936
2017-10-24T07:28:37.881Z,1020
2017-10-24T07:29:47.058Z,1120
2017-10-24T07:30:55.905Z,1152
2017-10-24T07:32:04.755Z,1224
2017-10-24T07:33:13.706Z,1236
2017-10-24T07:34:22.555Z,1256
2017-10-24T07:35:31.402Z,1236
2017-10-24T07:36:40.251Z,1156
2017-10-24T07:37:49.118Z,1164
2017-10-24T07:38:58.102Z,1076
2017-10-24T07:40:06.953Z,1124
2017-10-24T07:41:15.802Z,1088
2017-10-24T07:42:24.652Z,1076
2017-10-24T07:43:33.501Z,1136
2017-10-24T07:44:42.452Z,1168
2017-10-24T07:45:51.306Z,1116
2017-10-24T07:47:00.506Z,1060
2017-10-24T07:48:09.354Z,1060
2017-10-24T07:49:18.210Z,1056
2017-10-24T07:50:27.598Z,984
2017-10-24T07:51:36.446Z,980
2017-10-24T07:52:45.295Z,972
2017-10-24T07:53:54.149Z,1016
2017-10-24T07:55:03.004Z,1000
2017-10-24T07:56:12.253Z,1064
2017-10-24T07:57:21.101Z,968
2017-10-24T07:58:29.950Z,1000
2017-10-24T07:59:38.801Z,1044
2017-10-24T08:01:19.809Z,1004
2017-10-24T08:02:28.657Z,988
2017-10-24T08:03:37.853Z,972
2017-10-24T08:04:46.703Z,972
2017-10-24T08:05:55.552Z,1024
2017-10-24T08:07:04.805Z,1020
2017-10-24T08:08:13.655Z,1040
2017-10-24T08:09:22.504Z,1108
2017-10-24T08:10:31.356Z,1064
2017-10-24T08:11:40.206Z,1076
2017-10-24T08:12:49.160Z,1100
2017-10-24T08:13:58.012Z,1112
2017-10-24T08:15:06.862Z,1228
2017-10-24T08:16:15.713Z,1184
2017-10-24T08:17:24.563Z,1224
2017-10-24T08:18:33.667Z,1272
2017-10-24T08:19:42.518Z,1196
2017-10-24T08:20:51.369Z,1252
2017-10-24T08:22:00.222Z,1220
2017-10-24T08:23:09.069Z,1276
2017-10-24T08:24:18.322Z,1472
2017-10-24T08:25:27.171Z,1272
2017-10-24T08:26:36.023Z,1288
2017-10-24T08:27:44.872Z,1352
2017-10-24T08:28:53.773Z,1396
2017-10-24T08:30:02.831Z,1244
2017-10-24T08:31:11.680Z,1248
2017-10-24T08:32:20.530Z,1456
2017-10-24T08:33:29.753Z,1532
2017-10-24T08:34:38.607Z,1604
2017-10-24T08:35:47.756Z,1468
2017-10-24T08:36:56.604Z,1376
2017-10-24T08:38:05.453Z,1608
2017-10-24T08:39:14.303Z,1456
2017-10-24T08:40:23.150Z,1536
2017-10-24T08:41:32.202Z,1640
2017-10-24T08:42:41.053Z,1656
2017-10-24T08:43:49.904Z,1604
2017-10-24T08:44:58.756Z,1684
2017-10-24T08:46:07.606Z,1544
2017-10-24T08:47:16.558Z,1644
2017-10-24T08:48:25.409Z,1676
2017-10-24T08:49:34.258Z,1716
2017-10-24T08:50:43.108Z,1824
2017-10-24T08:51:51.959Z,1648
2017-10-24T08:53:00.914Z,1504
2017-10-24T08:54:10.113Z,1584
2017-10-24T08:55:18.956Z,1684
2017-10-24T08:56:27.807Z,1544
2017-10-24T08:57:37.013Z,1468
2017-10-24T08:58:46.423Z,1500
2017-10-24T08:59:55.261Z,1516
2017-10-24T09:01:04.112Z,1556
2017-10-24T09:02:12.960Z,1560
2017-10-24T09:03:21.809Z,1740
2017-10-24T09:04:30.758Z,1632
2017-10-24T09:05:39.616Z,1840
2017-10-24T09:06:48.461Z,1956
2017-10-24T09:07:57.656Z,2028
2017-10-24T09:09:06.850Z,2200
2017-10-24T09:10:15.900Z,2312
2017-10-24T09:11:24.748Z,2112
2017-10-24T09:12:33.601Z,2164
2017-10-24T09:13:42.445Z,2192
2017-10-24T09:14:51.296Z,2664
2017-10-24T09:16:00.544Z,2692
2017-10-24T09:17:09.395Z,2532
2017-10-24T09:18:18.241Z,2828
2017-10-24T09:19:27.433Z,2580
2017-10-24T09:20:36.284Z,2312
2017-10-24T09:21:45.436Z,2164
2017-10-24T09:22:54.287Z,2276
2017-10-24T09:24:03.137Z,2044
2017-10-24T09:25:11.987Z,2016
2017-10-24T09:26:20.838Z,1952
2017-10-24T09:27:30.088Z,1836
2017-10-24T09:28:38.938Z,1932
2017-10-24T09:29:47.787Z,1584
2017-10-24T09:30:56.641Z,1604
2017-10-24T09:32:05.494Z,1740
2017-10-24T09:33:14.542Z,1372
2017-10-24T09:34:23.392Z,1476
2017-10-24T09:35:32.244Z,1672
2017-10-24T09:36:41.094Z,1428
2017-10-24T09:37:49.949Z,1668
2017-10-24T09:38:58.944Z,2048
2017-10-24T09:40:07.792Z,2020
2017-10-24T09:41:16.693Z,1500
2017-10-24T09:42:25.543Z,1464
2017-10-24T09:43:34.393Z,1564
2017-10-24T09:44:43.293Z,1588
2017-10-24T09:45:52.142Z,1748
2017-10-24T09:47:00.991Z,1288
2017-10-24T09:48:09.839Z,1428
2017-10-24T09:49:19.036Z,1564
2017-10-24T09:50:28.088Z,1860
2017-10-24T09:51:37.285Z,2236
2017-10-24T09:52:46.137Z,2132
2017-10-24T09:53:55.329Z,2232
2017-10-24T09:55:04.187Z,2132
2017-10-24T09:56:13.330Z,1796
2017-10-24T09:57:22.196Z,1908
2017-10-24T09:58:31.391Z,1900
2017-10-24T09:59:40.241Z,1948
2017-10-24T10:00:49.090Z,1780
2017-10-24T10:01:58.092Z,1692
2017-10-24T10:03:06.944Z,1848
2017-10-24T10:04:16.486Z,1824
2017-10-24T10:05:25.339Z,1788
2017-10-24T10:06:34.189Z,1516
2017-10-24T10:07:43.041Z,1764
2017-10-24T10:08:51.894Z,1732
2017-10-24T10:10:00.748Z,1668
2017-10-24T10:11:09.596Z,1872
2017-10-24T10:12:18.448Z,1912
2017-10-24T10:13:27.503Z,2140
2017-10-24T10:14:36.352Z,2304
2017-10-24T10:15:45.206Z,2016
2017-10-24T10:16:54.053Z,1908
2017-10-24T10:18:02.904Z,2024
2017-10-24T10:19:11.905Z,2204
2017-10-24T10:20:20.759Z,2592
2017-10-24T10:21:29.610Z,3156
2017-10-24T10:22:38.459Z,2984
2017-10-24T10:23:47.315Z,3204
2017-10-24T10:24:56.211Z,3140
2017-10-24T10:26:05.062Z,2776
2017-10-24T10:27:13.922Z,2828
2017-10-24T10:28:22.775Z,2884
2017-10-24T10:29:31.624Z,3308
2017-10-24T10:30:40.679Z,3600
2017-10-24T10:31:49.529Z,3216
2017-10-24T10:32:58.380Z,2704
2017-10-24T10:34:07.231Z,2688
2017-10-24T10:35:16.423Z,2872
2017-10-24T10:36:25.424Z,2812
2017-10-24T10:37:34.276Z,3168
2017-10-24T10:38:43.124Z,3272
2017-10-24T10:39:51.978Z,3316
2017-10-24T10:41:00.925Z,2808
2017-10-24T10:42:09.927Z,2864
2017-10-24T10:43:18.779Z,2808
2017-10-24T10:44:27.633Z,3148
2017-10-24T10:45:36.479Z,3460
2017-10-24T10:46:45.330Z,3264
2017-10-24T10:47:54.283Z,3216
2017-10-24T10:49:03.134Z,3460
2017-10-24T10:50:11.983Z,3428
2017-10-24T10:51:20.835Z,3464
2017-10-24T10:52:29.688Z,3212
2017-10-24T10:53:38.639Z,3132
2017-10-24T10:54:47.492Z,3092
2017-10-24T10:55:56.346Z,2884
2017-10-24T10:57:05.223Z,2852
2017-10-24T10:58:14.083Z,2848
2017-10-24T10:59:23.032Z,2740
2017-10-24T11:00:31.903Z,2628
2017-10-24T11:01:40.755Z,2332
2017-10-24T11:02:49.606Z,2212
2017-10-24T11:03:58.457Z,2004
2017-10-24T11:05:07.410Z,2116
2017-10-24T11:06:16.310Z,2008
2017-10-24T11:07:25.168Z,2212
2017-10-24T11:08:34.361Z,2244
2017-10-24T11:09:43.213Z,2232
2017-10-24T11:10:52.165Z,2272
2017-10-24T11:12:01.016Z,2528
2017-10-24T11:13:09.868Z,2692
2017-10-24T11:14:18.723Z,2288
2017-10-24T11:15:27.572Z,2372
2017-10-24T11:16:36.527Z,2068
2017-10-24T11:17:45.380Z,2148
2017-10-24T11:18:54.254Z,1756
2017-10-24T11:20:03.345Z,1904
2017-10-24T11:21:12.252Z,2120
2017-10-24T11:22:21.400Z,2284
2017-10-24T11:23:30.260Z,2224
2017-10-24T11:24:39.114Z,1904
2017-10-24T11:25:47.978Z,2160
2017-10-24T11:26:57.285Z,2260
2017-10-24T11:28:06.627Z,2188
2017-10-24T11:29:15.479Z,2236
2017-10-24T11:30:24.331Z,2380
2017-10-24T11:31:33.180Z,2416
2017-10-24T11:32:42.034Z,2244
2017-10-24T11:33:50.935Z,2356
2017-10-24T11:34:59.787Z,2232
2017-10-24T11:36:08.637Z,2188
2017-10-24T11:37:17.489Z,2144
2017-10-24T11:38:26.345Z,2076
2017-10-24T11:39:35.296Z,1824
2017-10-24T11:40:44.141Z,1744
2017-10-24T11:41:52.998Z,1748
2017-10-24T11:43:01.854Z,2036
2017-10-24T11:44:10.706Z,1916
2017-10-24T11:45:19.707Z,1664
2017-10-24T11:46:28.564Z,1504
2017-10-24T11:47:37.412Z,1572
2017-10-24T11:48:46.316Z,1592
2017-10-24T11:49:55.606Z,1408
2017-10-24T11:51:04.739Z,1352
2017-10-24T11:52:13.593Z,1520
2017-10-24T11:53:22.451Z,1484
2017-10-24T11:54:31.301Z,1488
2017-10-24T11:55:40.149Z,1672
2017-10-24T11:56:49.101Z,1644
2017-10-24T11:57:57.955Z,1856
2017-10-24T11:59:06.806Z,1712
2017-10-24T12:00:15.661Z,1620
2017-10-24T12:01:24.511Z,1604
2017-10-24T12:02:33.465Z,1528
2017-10-24T12:03:42.315Z,1376
2017-10-24T12:04:51.167Z,1448
2017-10-24T12:06:00.013Z,1516
2017-10-24T12:07:08.869Z,1428
2017-10-24T12:08:17.876Z,1500
2017-10-24T12:09:26.731Z,1440
2017-10-24T12:10:35.584Z,1540
2017-10-24T12:11:44.435Z,1448
2017-10-24T12:12:53.286Z,1460
2017-10-24T12:14:03.125Z,1404
2017-10-24T12:15:11.977Z,1596
2017-10-24T12:16:20.828Z,1424
2017-10-24T12:17:29.678Z,1316
2017-10-24T12:18:38.528Z,1248
2017-10-24T12:19:47.689Z,1284
2017-10-24T12:20:56.539Z,1320
2017-10-24T12:22:05.389Z,1444
2017-10-24T12:23:14.240Z,1336
2017-10-24T12:24:23.091Z,1216
2017-10-24T12:25:31.940Z,1116
2017-10-24T12:26:40.793Z,924
2017-10-24T12:27:49.646Z,968
2017-10-24T12:28:58.500Z,992
2017-10-24T12:30:07.355Z,976
2017-10-24T12:31:16.402Z,1008
2017-10-24T12:32:25.253Z,948
2017-10-24T12:33:34.101Z,936
2017-10-24T12:34:42.952Z,812
2017-10-24T12:35:51.808Z,768
2017-10-24T12:37:00.957Z,996
2017-10-24T12:38:09.806Z,1416
2017-10-24T12:39:18.656Z,1224
2017-10-24T12:40:27.508Z,1340
2017-10-24T12:41:36.361Z,1616
2017-10-24T12:42:45.213Z,1516
2017-10-24T12:43:54.068Z,1420
2017-10-24T12:45:02.921Z,1264
2017-10-24T12:46:11.774Z,1164
2017-10-24T12:47:20.624Z,1224
2017-10-24T12:48:29.778Z,1504
2017-10-24T12:49:38.633Z,1524
2017-10-24T12:50:47.483Z,1292
2017-10-24T12:51:56.335Z,1412
2017-10-24T12:53:05.186Z,1480
2017-10-24T12:54:14.036Z,1788
2017-10-24T12:55:22.890Z,1868
2017-10-24T12:56:31.740Z,1836
2017-10-24T12:57:40.591Z,1728
2017-10-24T12:58:49.788Z,1368
2017-10-24T12:59:58.787Z,1384
2017-10-24T13:01:07.637Z,1312
2017-10-24T13:02:16.492Z,972
2017-10-24T13:03:25.345Z,928
2017-10-24T13:04:34.198Z,1096
2017-10-24T13:05:43.051Z,968
2017-10-24T13:06:51.904Z,912
2017-10-24T13:08:00.757Z,844
2017-10-24T13:09:09.610Z,844
2017-10-24T13:10:18.462Z,860
2017-10-24T13:11:27.314Z,1148
2017-10-24T13:12:36.166Z,1456
2017-10-24T13:13:45.021Z,1560
2017-10-24T13:14:53.871Z,1912
2017-10-24T13:16:02.726Z,2044
2017-10-24T13:17:11.576Z,1920
2017-10-24T13:18:20.428Z,1912
2017-10-24T13:19:29.278Z,1976
2017-10-24T13:20:38.126Z,1532
2017-10-24T13:21:46.980Z,1388
2017-10-24T13:22:55.829Z,1288
2017-10-24T13:24:04.681Z,1056
2017-10-24T13:25:13.531Z,1148
2017-10-24T13:26:22.380Z,1412
2017-10-24T13:27:31.242Z,1256
2017-10-24T13:28:40.093Z,1340
2017-10-24T13:29:49.283Z,1272
2017-10-24T13:30:58.135Z,1436
2017-10-24T13:32:06.986Z,1620
2017-10-24T13:33:15.843Z,1400
2017-10-24T13:34:24.700Z,1772
2017-10-24T13:35:33.747Z,1480
2017-10-24T13:36:42.602Z,1504
2017-10-24T13:37:51.456Z,1624
2017-10-24T13:39:00.304Z,1288
2017-10-24T13:40:09.154Z,1252
2017-10-24T13:41:18.202Z,1144
2017-10-24T13:42:27.056Z,912
2017-10-24T13:43:35.907Z,848
2017-10-24T13:44:45.108Z,1100
2017-10-24T13:45:53.962Z,1100
2017-10-24T13:47:02.860Z,1104
2017-10-24T13:48:11.710Z,960
2017-10-24T13:49:20.561Z,848
2017-10-24T13:50:29.764Z,712
2017-10-24T13:51:38.619Z,680
2017-10-24T13:52:48.116Z,568
2017-10-24T13:53:56.976Z,780
2017-10-24T13:55:05.831Z,664
2017-10-24T13:56:14.695Z,648
2017-10-24T13:57:23.545Z,668
2017-10-24T13:58:32.487Z,672
2017-10-24T14:00:13.403Z,660
2017-10-24T14:01:22.261Z,612
2017-10-24T14:02:31.118Z,588
2017-10-24T14:03:40.070Z,560
2017-10-24T14:04:48.951Z,520
2017-10-24T14:05:57.828Z,508
2017-10-24T14:07:06.680Z,492
2017-10-24T14:08:15.533Z,520
2017-10-24T14:09:24.491Z,464
2017-10-24T14:10:33.336Z,496
2017-10-24T14:11:42.186Z,524
2017-10-24T14:12:51.036Z,472
2017-10-24T14:13:59.889Z,468
2017-10-24T14:15:08.893Z,448
2017-10-24T14:16:17.744Z,448
2017-10-24T14:17:26.596Z,440
2017-10-24T14:18:35.449Z,460
2017-10-24T14:19:44.301Z,544
2017-10-24T14:20:53.452Z,524
2017-10-24T14:22:02.303Z,476
2017-10-24T14:23:11.154Z,540
2017-10-24T14:24:20.005Z,544
2017-10-24T14:25:28.857Z,556
2017-10-24T14:26:37.808Z,476
2017-10-24T14:27:47.006Z,480
2017-10-24T14:28:55.865Z,428
2017-10-24T14:30:04.727Z,384
2017-10-24T14:31:13.935Z,388
2017-10-24T14:32:22.914Z,356
2017-10-24T14:33:31.764Z,384
2017-10-24T14:34:40.961Z,376
2017-10-24T14:35:49.813Z,396
2017-10-24T14:36:58.663Z,404
2017-10-24T14:38:07.513Z,380
2017-10-24T14:39:16.369Z,396
2017-10-24T14:40:25.215Z,488
2017-10-24T14:41:34.066Z,536
2017-10-24T14:42:42.948Z,484
2017-10-24T14:43:51.903Z,464
2017-10-24T14:45:00.757Z,480
2017-10-24T14:46:09.608Z,496
2017-10-24T14:47:18.469Z,480
2017-10-24T14:48:27.329Z,484
2017-10-24T14:49:36.227Z,468
2017-10-24T14:50:45.074Z,480
2017-10-24T14:51:53.926Z,464
2017-10-24T14:53:02.777Z,384
2017-10-24T14:54:11.634Z,424
2017-10-24T14:55:20.479Z,344
2017-10-24T14:56:29.328Z,288
2017-10-24T14:57:38.215Z,296
2017-10-24T14:58:47.111Z,292
2017-10-24T14:59:56.460Z,280
2017-10-24T15:01:05.317Z,240
2017-10-24T15:02:14.167Z,252
2017-10-24T15:03:23.076Z,272
2017-10-24T15:04:31.924Z,256
2017-10-24T15:05:40.810Z,232
2017-10-24T15:06:49.660Z,212
2017-10-24T15:07:58.512Z,208
2017-10-24T15:09:07.416Z,188
2017-10-24T15:10:16.432Z,168
2017-10-24T15:11:25.301Z,180
2017-10-24T15:12:34.189Z,172
2017-10-24T15:13:43.041Z,172
2017-10-24T15:14:51.920Z,156
2017-10-24T15:16:00.802Z,128
2017-10-24T15:17:09.941Z,132
2017-10-24T15:18:18.826Z,168
2017-10-24T15:19:27.679Z,204
2017-10-24T15:20:36.832Z,196
2017-10-24T15:21:45.791Z,212
2017-10-24T15:22:54.652Z,220
2017-10-24T15:24:03.501Z,168
2017-10-24T15:25:12.699Z,156
2017-10-24T15:26:21.556Z,160
2017-10-24T15:27:30.410Z,160
2017-10-24T15:28:39.264Z,160
2017-10-24T15:29:48.158Z,160
2017-10-24T15:30:57.026Z,136
2017-10-24T15:32:05.941Z,144
2017-10-24T15:33:14.848Z,144
2017-10-24T15:34:23.800Z,152
2017-10-24T15:35:32.689Z,176
2017-10-24T15:36:41.771Z,180
2017-10-24T15:37:50.648Z,180
2017-10-24T15:38:59.548Z,176
2017-10-24T15:40:08.422Z,176
2017-10-24T15:41:17.305Z,152
2017-10-24T15:42:26.199Z,124
2017-10-24T15:43:35.102Z,112
2017-10-24T15:44:44.007Z,104
2017-10-24T15:45:52.901Z,100
2017-10-24T15:47:02.069Z,92
2017-10-24T15:48:10.964Z,92
2017-10-24T15:49:19.815Z,88
2017-10-24T15:50:28.668Z,80
2017-10-24T15:51:37.516Z,88
2017-10-24T15:52:46.366Z,80
2017-10-24T15:53:55.217Z,76
2017-10-24T15:55:04.070Z,68
2017-10-24T15:56:12.922Z,64
2017-10-24T15:57:21.868Z,60
2017-10-24T15:58:30.728Z,48
2017-10-24T15:59:39.573Z,48
2017-10-24T16:00:48.780Z,36
2017-10-24T16:01:57.626Z,32
2017-10-24T16:03:06.578Z,28
2017-10-24T16:04:15.426Z,28